createdAt,value
2023-08-07T00:03:39.905Z,12.20
2023-08-07T00:08:41.742Z,4.30
2023-08-07T00:13:43.598Z,5.00
2023-08-07T00:18:45.493Z,8.70
2023-08-07T00:23:47.429Z,4.40
2023-08-07T00:28:49.450Z,4.30
2023-08-07T00:33:55.192Z,4.80
2023-08-07T00:38:57.148Z,6.10
2023-08-07T00:43:59.204Z,4.50
2023-08-07T00:49:01.131Z,10.30
2023-08-07T00:54:05.257Z,6.80
2023-08-07T00:59:07.711Z,5.90
2023-08-07T01:04:09.546Z,7.80
2023-08-07T01:09:11.474Z,5.50
2023-08-07T01:14:19.576Z,5.50
2023-08-07T01:19:28.444Z,5.80
2023-08-07T01:24:30.435Z,10.70
2023-08-07T01:29:41.741Z,6.20
2023-08-07T01:34:45.396Z,6.20
2023-08-07T01:39:48.444Z,6.30
2023-08-07T01:44:51.356Z,6.70
2023-08-07T01:49:53.460Z,6.50
2023-08-07T01:54:55.397Z,6.70
2023-08-07T01:59:57.294Z,9.60
2023-08-07T02:04:59.190Z,7.20
2023-08-07T02:10:01.130Z,7.30
2023-08-07T02:15:03.437Z,8.00
2023-08-07T02:20:06.720Z,6.40
2023-08-07T02:25:09.051Z,6.50
2023-08-07T02:30:13.279Z,8.80
2023-08-07T02:35:15.203Z,9.40
2023-08-07T02:40:18.859Z,7.20
2023-08-07T02:45:20.700Z,8.40
2023-08-07T02:50:22.570Z,8.90
2023-08-07T02:55:24.436Z,7.10
2023-08-07T03:00:26.390Z,7.00
2023-08-07T03:05:28.396Z,8.00
2023-08-07T03:10:30.388Z,6.80
2023-08-07T03:15:32.252Z,6.60
2023-08-07T03:20:34.073Z,6.50
2023-08-07T03:25:35.934Z,5.50
2023-08-07T03:30:39.349Z,6.30
2023-08-07T03:35:42.428Z,6.10
2023-08-07T03:40:45.490Z,5.80
2023-08-07T03:45:47.420Z,5.90
2023-08-07T03:50:49.809Z,5.70
2023-08-07T03:55:53.102Z,5.80
2023-08-07T04:07:10.992Z,6.10
2023-08-07T04:12:13.009Z,4.50
2023-08-07T04:17:14.838Z,3.20
2023-08-07T04:22:16.641Z,4.60
2023-08-07T04:27:18.463Z,3.70
2023-08-07T04:32:20.371Z,3.10
2023-08-07T04:37:22.536Z,1.50
2023-08-07T04:42:24.594Z,2.10
2023-08-07T04:47:26.839Z,1.60
2023-08-07T04:52:29.064Z,3.50
2023-08-07T04:57:30.867Z,3.00
2023-08-07T05:02:32.777Z,4.30
2023-08-07T05:07:35.911Z,0.50
2023-08-07T05:12:37.778Z,1.00
2023-08-07T05:17:39.730Z,1.10
2023-08-07T05:22:41.547Z,0.60
2023-08-07T05:27:44.394Z,6.30
2023-08-07T05:32:46.322Z,1.10
2023-08-07T05:37:48.252Z,0.70
2023-08-07T05:42:50.868Z,0.70
2023-08-07T05:47:52.745Z,1.30
2023-08-07T05:52:55.047Z,2.40
2023-08-07T05:57:56.838Z,1.20
2023-08-07T06:02:58.778Z,1.80
2023-08-07T06:08:00.616Z,2.40
2023-08-07T06:13:02.508Z,0.50
2023-08-07T06:18:04.530Z,1.00
2023-08-07T06:23:06.532Z,0.60
2023-08-07T06:28:08.377Z,0.90
2023-08-07T06:33:11.713Z,0.40
2023-08-07T06:38:15.756Z,1.20
2023-08-07T06:43:18.034Z,0.30
2023-08-07T06:48:19.933Z,0.80
2023-08-07T06:53:21.901Z,0.60
2023-08-07T06:58:23.816Z,0.50
2023-08-07T07:03:25.843Z,0.60
2023-08-07T07:08:27.748Z,0.90
2023-08-07T07:13:30.976Z,1.70
2023-08-07T07:18:33.056Z,1.50
2023-08-07T07:23:52.826Z,0.30
2023-08-07T07:28:54.874Z,0.70
2023-08-07T07:33:56.902Z,0.30
2023-08-07T07:38:58.842Z,1.60
2023-08-07T07:44:05.005Z,0.80
2023-08-07T07:49:08.301Z,0.90
2023-08-07T07:54:15.190Z,1.70
2023-08-07T07:59:17.818Z,0.40
2023-08-07T08:04:20.645Z,1.60
2023-08-07T08:09:22.678Z,1.10
2023-08-07T08:14:24.577Z,0.90
2023-08-07T08:19:29.066Z,0.50
2023-08-07T08:24:36.095Z,0.50
2023-08-07T08:29:37.952Z,0.40
2023-08-07T08:34:39.814Z,1.10
2023-08-07T08:39:41.642Z,0.60
2023-08-07T08:44:48.109Z,1.30
2023-08-07T08:50:05.832Z,2.00
2023-08-07T08:55:09.195Z,1.50
2023-08-07T09:00:24.856Z,0.40
2023-08-07T09:11:05.523Z,1.20
2023-08-07T09:16:30.100Z,1.10
2023-08-07T09:21:37.469Z,0.60
2023-08-07T09:26:44.938Z,0.90
2023-08-07T09:31:47.627Z,2.60
2023-08-07T09:36:52.175Z,0.50
2023-08-07T09:41:54.539Z,0.60
2023-08-07T09:46:56.704Z,1.40
2023-08-07T09:51:58.792Z,0.70
2023-08-07T09:57:03.328Z,1.10
2023-08-07T10:02:05.953Z,0.90
2023-08-07T10:07:08.052Z,1.70
2023-08-07T10:12:10.083Z,4.00
2023-08-07T10:17:12.295Z,5.00
2023-08-07T10:22:17.662Z,2.30
2023-08-07T10:27:24.712Z,2.60
2023-08-07T10:32:28.118Z,2.30
2023-08-07T10:37:42.213Z,3.50
2023-08-07T10:42:54.289Z,1.50
2023-08-07T10:48:10.475Z,1.80
2023-08-07T10:53:21.221Z,1.30
2023-08-07T10:58:30.454Z,4.20
2023-08-07T11:03:37.596Z,2.00
2023-08-07T11:08:40.082Z,3.00
2023-08-07T11:13:42.071Z,2.20
2023-08-07T11:18:46.798Z,2.50
2023-08-07T11:23:48.683Z,4.30
2023-08-07T11:28:50.749Z,1.90
2023-08-07T11:33:53.972Z,2.30
2023-08-07T11:38:56.401Z,3.40
2023-08-07T11:43:58.203Z,2.60
2023-08-07T11:49:00.648Z,2.60
2023-08-07T11:54:03.957Z,2.30
2023-08-07T11:59:07.448Z,2.60
2023-08-07T12:04:11.083Z,1.60
2023-08-07T12:09:14.395Z,1.90
2023-08-07T12:14:18.384Z,3.80
2023-08-07T12:19:20.353Z,3.00
2023-08-07T12:24:23.908Z,2.10
2023-08-07T12:29:29.889Z,2.30
2023-08-07T12:44:41.643Z,2.10
2023-08-07T12:49:43.582Z,1.70
2023-08-07T12:54:45.356Z,2.10
2023-08-07T12:59:47.297Z,2.10
2023-08-07T13:04:49.133Z,2.00
2023-08-07T13:09:52.227Z,1.90
2023-08-07T13:14:54.328Z,2.20
2023-08-07T13:19:56.143Z,3.40
2023-08-07T13:24:58.110Z,2.70
2023-08-07T13:30:00.059Z,2.00
2023-08-07T13:35:02.164Z,2.60
2023-08-07T13:40:05.806Z,2.10
2023-08-07T13:45:08.798Z,3.90
2023-08-07T13:50:14.176Z,2.30
2023-08-07T13:55:16.250Z,2.60
2023-08-07T14:00:19.024Z,3.50
2023-08-07T14:05:21.018Z,3.30
2023-08-07T14:10:22.877Z,2.80
2023-08-07T14:15:26.074Z,2.50
2023-08-07T14:20:28.265Z,2.90
2023-08-07T14:25:30.344Z,5.80
2023-08-07T14:30:32.154Z,3.80
2023-08-07T14:35:34.060Z,5.60
2023-08-07T14:40:39.290Z,2.50
2023-08-07T14:45:41.551Z,2.20
2023-08-07T14:50:43.599Z,4.20
2023-08-07T14:55:46.498Z,3.50
2023-08-07T15:00:48.385Z,1.70
2023-08-07T15:05:50.271Z,3.90
2023-08-07T15:10:54.321Z,3.10
2023-08-07T15:15:56.386Z,4.70
2023-08-07T15:21:01.845Z,5.20
2023-08-07T15:26:03.924Z,4.20
2023-08-07T15:31:05.819Z,2.60
2023-08-07T15:36:07.741Z,2.90
2023-08-07T15:41:12.264Z,4.50
2023-08-07T15:46:14.241Z,3.10
2023-08-07T15:51:16.164Z,4.60
2023-08-07T15:56:18.024Z,4.20
2023-08-07T16:01:20.018Z,4.00
2023-08-07T16:06:22.860Z,2.60
2023-08-07T16:11:24.707Z,3.00
2023-08-07T16:16:26.584Z,2.30
2023-08-07T16:21:28.543Z,2.20
2023-08-07T16:26:30.495Z,3.90
2023-08-07T16:31:32.319Z,1.90
2023-08-07T16:36:34.327Z,3.00
2023-08-07T16:41:36.363Z,4.00
2023-08-07T16:46:38.386Z,2.40
2023-08-07T16:51:40.293Z,1.90
2023-08-07T16:56:42.245Z,2.90
2023-08-07T17:01:44.154Z,7.80
2023-08-07T17:06:46.040Z,3.80
2023-08-07T17:11:47.865Z,5.10
2023-08-07T17:16:49.752Z,7.60
2023-08-07T17:21:52.148Z,4.20
2023-08-07T17:26:55.608Z,3.00
2023-08-07T17:31:59.261Z,2.70
2023-08-07T17:37:03.032Z,2.70
2023-08-07T17:42:05.611Z,3.00
2023-08-07T17:47:11.745Z,2.60
2023-08-07T17:52:13.956Z,3.80
2023-08-07T17:57:16.036Z,3.80
2023-08-07T18:02:17.826Z,2.50
2023-08-07T18:07:19.721Z,3.40
2023-08-07T18:12:21.575Z,4.80
2023-08-07T18:17:24.548Z,3.00
2023-08-07T18:22:26.990Z,3.80
2023-08-07T18:27:28.979Z,3.20
2023-08-07T18:32:31.989Z,3.60
2023-08-07T18:37:34.027Z,3.50
2023-08-07T18:42:36.003Z,2.90
2023-08-07T18:47:39.094Z,2.70
2023-08-07T18:52:41.003Z,3.80
2023-08-07T18:57:43.199Z,3.70
2023-08-07T19:02:45.983Z,2.40
2023-08-07T19:07:47.890Z,5.50
2023-08-07T19:12:49.769Z,4.10
2023-08-07T19:17:52.050Z,4.80
2023-08-07T19:22:53.984Z,1.90
2023-08-07T19:27:55.834Z,2.20
2023-08-07T19:32:59.696Z,1.70
2023-08-07T19:38:02.098Z,2.10
2023-08-07T19:43:04.184Z,2.10
2023-08-07T19:48:06.542Z,2.20
2023-08-07T19:53:08.602Z,1.20
2023-08-07T19:58:10.480Z,5.00
2023-08-07T20:03:14.988Z,3.70
2023-08-07T20:08:17.237Z,1.50
2023-08-07T20:13:20.643Z,3.50
2023-08-07T20:18:22.540Z,1.50
2023-08-07T20:23:26.142Z,1.00
2023-08-07T20:28:28.055Z,2.10
2023-08-07T20:33:29.979Z,1.60
2023-08-07T20:38:32.011Z,2.20
2023-08-07T20:43:33.974Z,6.10
2023-08-07T20:48:35.774Z,2.40
2023-08-07T20:53:38.432Z,2.10
2023-08-07T20:58:40.331Z,1.00
2023-08-07T21:03:42.191Z,2.40
2023-08-07T21:08:44.179Z,2.90
2023-08-07T21:13:45.965Z,1.40
2023-08-07T21:18:48.131Z,0.90
2023-08-07T21:23:49.946Z,3.10
2023-08-07T21:28:52.525Z,1.00
2023-08-07T21:33:55.864Z,2.80
2023-08-07T21:38:59.077Z,1.40
2023-08-07T21:44:01.012Z,1.20
2023-08-07T21:49:02.805Z,2.60
2023-08-07T21:54:04.751Z,1.80
2023-08-07T21:59:06.634Z,1.00
2023-08-07T22:04:11.222Z,3.60
2023-08-07T22:09:13.156Z,2.20
2023-08-07T22:14:15.052Z,2.20
2023-08-07T22:19:17.064Z,1.40
2023-08-07T22:24:19.111Z,0.90
2023-08-07T22:29:20.906Z,3.70
2023-08-07T22:34:23.064Z,0.70
2023-08-07T22:39:25.201Z,1.80
2023-08-07T22:44:27.214Z,1.00
2023-08-07T22:49:30.871Z,1.30
2023-08-07T22:54:32.938Z,0.60
2023-08-07T22:59:34.795Z,0.60
2023-08-07T23:04:36.769Z,0.80
2023-08-07T23:09:40.698Z,1.20
2023-08-07T23:14:42.573Z,1.30
2023-08-07T23:19:47.480Z,2.80
2023-08-07T23:24:49.500Z,1.90
2023-08-07T23:29:51.912Z,2.50
2023-08-07T23:34:54.015Z,2.00
2023-08-07T23:39:55.859Z,1.20
2023-08-07T23:45:04.303Z,1.20
2023-08-07T23:50:07.550Z,3.50
2023-08-07T23:55:09.745Z,0.90
